createdAt,value
2023-08-08T00:00:36.607Z,84.6
2023-08-08T00:25:36.578Z,83.8
2023-08-08T00:35:36.574Z,84.6
2023-08-08T00:40:36.558Z,85
2023-08-08T00:45:36.564Z,84.8
2023-08-08T00:50:36.556Z,84.7
2023-08-08T00:55:36.555Z,84.4
2023-08-08T01:00:36.585Z,84.3
2023-08-08T01:05:36.542Z,84
2023-08-08T01:10:36.566Z,83.7
2023-08-08T01:15:36.691Z,83.8
2023-08-08T01:20:36.552Z,83.6
2023-08-08T01:25:36.526Z,83.3
2023-08-08T01:30:36.552Z,83.6
2023-08-08T01:35:36.510Z,83.1
2023-08-08T01:40:36.504Z,83.3
2023-08-08T01:45:36.489Z,83.3
2023-08-08T01:50:36.498Z,83.3
2023-08-08T01:55:36.488Z,83.5
2023-08-08T02:00:36.481Z,83.9
2023-08-08T02:05:36.475Z,84.5
2023-08-08T02:10:36.478Z,84.9
2023-08-08T02:15:36.505Z,85.2
2023-08-08T02:20:36.496Z,84.6
2023-08-08T02:25:36.454Z,85.1
2023-08-08T02:30:36.442Z,86.1
2023-08-08T02:35:36.431Z,86.6
2023-08-08T02:40:36.465Z,87.4
2023-08-08T02:45:36.437Z,88.6
2023-08-08T02:50:36.417Z,89.5
2023-08-08T02:55:36.421Z,90.3
2023-08-08T03:00:36.435Z,91.3
2023-08-08T03:05:36.415Z,91.9
2023-08-08T03:10:36.415Z,92.2
2023-08-08T03:15:36.494Z,92.8
2023-08-08T03:20:36.421Z,92.9
2023-08-08T03:25:36.387Z,93
2023-08-08T03:30:36.420Z,93.1
2023-08-08T03:35:36.369Z,92.9
2023-08-08T03:40:36.358Z,92.7
2023-08-08T03:45:36.368Z,91.3
2023-08-08T03:50:36.388Z,89.9
2023-08-08T03:55:36.381Z,88.9
2023-08-08T04:00:36.377Z,87.7
2023-08-08T04:05:36.337Z,86.5
2023-08-08T04:10:36.351Z,85.7
2023-08-08T04:15:36.341Z,84.9
2023-08-08T04:20:36.320Z,84.9
2023-08-08T04:25:36.391Z,84.3
2023-08-08T04:30:36.317Z,82.9
2023-08-08T04:35:36.311Z,82.6
2023-08-08T04:40:36.752Z,84.3
2023-08-08T04:45:36.341Z,85.4
2023-08-08T04:50:36.300Z,86.2
2023-08-08T04:55:36.295Z,86.5
2023-08-08T05:00:36.285Z,86.3
2023-08-08T05:05:36.305Z,86.2
2023-08-08T05:10:36.282Z,86.2
2023-08-08T05:15:36.293Z,86.1
2023-08-08T05:20:36.266Z,85.5
2023-08-08T05:25:36.262Z,84.9
2023-08-08T05:30:36.268Z,84.4
2023-08-08T05:35:36.254Z,83.7
2023-08-08T05:40:36.258Z,82.8
2023-08-08T05:45:36.332Z,82.6
2023-08-08T05:50:36.225Z,82.7
2023-08-08T05:55:36.239Z,81.3
2023-08-08T06:00:36.231Z,78.6
2023-08-08T06:05:36.199Z,78.1
2023-08-08T06:10:36.211Z,78
2023-08-08T06:15:36.201Z,75.8
2023-08-08T06:20:36.241Z,75.5
2023-08-08T06:25:36.197Z,75.4
2023-08-08T06:30:38.158Z,75.6
2023-08-08T06:35:36.167Z,75.5
2023-08-08T06:40:36.245Z,74.6
2023-08-08T06:45:36.172Z,73.5
2023-08-08T06:50:36.160Z,71.3
2023-08-08T06:55:36.183Z,70.5
2023-08-08T07:00:36.182Z,69.1
2023-08-08T07:05:36.145Z,68.7
2023-08-08T07:10:36.134Z,69.4
2023-08-08T07:15:36.144Z,70
2023-08-08T07:20:36.135Z,69.5
2023-08-08T07:25:36.131Z,67.7
2023-08-08T07:30:36.122Z,68.7
2023-08-08T07:35:36.120Z,66.6
2023-08-08T07:40:36.104Z,65.4
2023-08-08T07:45:36.094Z,63.2
2023-08-08T07:50:36.092Z,65
2023-08-08T07:55:36.080Z,64.3
2023-08-08T08:00:36.077Z,64.7
2023-08-08T08:05:36.085Z,65.2
2023-08-08T08:10:36.057Z,63.6
2023-08-08T08:15:36.046Z,62.8
2023-08-08T08:35:36.006Z,60
2023-08-08T08:55:35.988Z,57.2
2023-08-08T09:05:36.004Z,55.9
2023-08-08T09:15:36.013Z,57.2
2023-08-08T09:35:35.954Z,54.9
2023-08-08T09:45:35.942Z,54.1
2023-08-08T09:55:35.916Z,53.1
2023-08-08T10:00:35.920Z,53.5
2023-08-08T10:15:35.890Z,50.7
2023-08-08T10:45:35.855Z,50.1
2023-08-08T10:50:35.846Z,46.8
2023-08-08T10:55:35.849Z,48.1
2023-08-08T11:00:35.834Z,49.4
2023-08-08T11:15:35.840Z,48
2023-08-08T11:20:35.819Z,46.4
2023-08-08T11:25:35.791Z,48.2
2023-08-08T11:30:35.806Z,48
2023-08-08T11:35:35.789Z,46.7
2023-08-08T11:40:35.775Z,46.8
2023-08-08T11:45:35.758Z,46.1
2023-08-08T11:50:35.751Z,45.3
2023-08-08T11:55:35.742Z,46.2
2023-08-08T12:00:35.779Z,45.9
2023-08-08T12:05:35.762Z,44.9
2023-08-08T12:10:35.779Z,46.1
2023-08-08T12:15:35.803Z,46.7
2023-08-08T12:20:35.722Z,47.3
2023-08-08T12:25:35.718Z,46.7
2023-08-08T12:30:35.718Z,47.1
2023-08-08T12:35:35.702Z,48.2
2023-08-08T12:40:35.692Z,48.1
2023-08-08T12:45:35.710Z,45.9
2023-08-08T12:50:35.682Z,46.6
2023-08-08T12:55:35.695Z,44.8
2023-08-08T13:10:35.641Z,45.8
2023-08-08T13:15:35.653Z,45.5
2023-08-08T13:45:35.621Z,44.1
2023-08-08T13:50:35.598Z,44.3
2023-08-08T13:55:35.612Z,43.9
2023-08-08T14:00:35.587Z,44
2023-08-08T14:05:35.567Z,43.6
2023-08-08T14:15:35.567Z,43.4
2023-08-08T14:25:35.553Z,44.8
2023-08-08T14:35:35.529Z,44
2023-08-08T14:45:35.530Z,46
2023-08-08T14:55:35.505Z,43.7
2023-08-08T15:05:35.486Z,43.1
2023-08-08T15:20:35.483Z,44.6
2023-08-08T15:30:35.445Z,44.1
2023-08-08T15:35:35.479Z,43.5
2023-08-08T15:40:35.463Z,45.2
2023-08-08T15:45:35.446Z,45.3
2023-08-08T15:50:35.435Z,46.3
2023-08-08T15:55:35.442Z,46.8
2023-08-08T16:00:35.455Z,47.6
2023-08-08T16:05:35.423Z,47
2023-08-08T16:10:35.410Z,48.5
2023-08-08T16:15:35.411Z,47.6
2023-08-08T16:20:35.435Z,48.7
2023-08-08T16:25:35.406Z,49.1
2023-08-08T16:30:35.440Z,49.1
2023-08-08T16:35:35.478Z,50.6
2023-08-08T16:40:35.411Z,51
2023-08-08T16:45:35.387Z,50.9
2023-08-08T16:50:35.406Z,51.9
2023-08-08T16:55:35.357Z,53.1
2023-08-08T17:00:35.393Z,53.1
2023-08-08T17:05:35.377Z,53
2023-08-08T17:10:35.336Z,53.9
2023-08-08T17:15:35.326Z,54
2023-08-08T17:20:35.327Z,54.8
2023-08-08T17:25:35.330Z,55.3
2023-08-08T17:30:35.328Z,55.2
2023-08-08T17:35:35.313Z,56.1
2023-08-08T17:40:35.310Z,57
2023-08-08T17:45:35.276Z,57.8
2023-08-08T17:50:35.294Z,58.1
2023-08-08T17:55:35.264Z,58.4
2023-08-08T18:00:35.264Z,59
2023-08-08T18:05:35.263Z,60.6
2023-08-08T18:10:35.262Z,61
2023-08-08T18:15:35.294Z,61.9
2023-08-08T18:20:36.661Z,63
2023-08-08T18:25:35.241Z,64.6
2023-08-08T18:30:35.219Z,65
2023-08-08T18:35:35.221Z,66.6
2023-08-08T18:40:35.222Z,67
2023-08-08T18:45:40.219Z,68.9
2023-08-08T18:50:35.231Z,70.4
2023-08-08T18:55:35.195Z,71.9
2023-08-08T19:00:35.183Z,74.6
2023-08-08T19:05:35.207Z,73.2
2023-08-08T19:10:35.190Z,75.2
2023-08-08T19:15:35.176Z,73.8
2023-08-08T19:20:35.159Z,76.1
2023-08-08T19:25:35.134Z,76.3
2023-08-08T19:30:35.142Z,77.5
2023-08-08T19:40:35.135Z,77.4
2023-08-08T19:45:35.167Z,76.8
2023-08-08T19:50:35.118Z,76.7
2023-08-08T19:55:35.148Z,75.2
2023-08-08T20:00:35.111Z,74.9
2023-08-08T20:05:35.108Z,75
2023-08-08T20:10:35.090Z,74.9
2023-08-08T20:15:35.167Z,75.4
2023-08-08T20:20:35.073Z,75.9
2023-08-08T20:25:35.082Z,75.4
2023-08-08T20:30:35.073Z,75.9
2023-08-08T20:35:35.061Z,75.2
2023-08-08T20:40:35.083Z,75.6
2023-08-08T20:45:35.064Z,77.9
2023-08-08T20:50:35.062Z,77.6
2023-08-08T20:55:36.221Z,76.2
2023-08-08T21:00:35.030Z,77.8
2023-08-08T21:05:35.033Z,78.4
2023-08-08T21:10:35.039Z,77.9
2023-08-08T21:15:35.005Z,77.2
2023-08-08T21:20:35.008Z,77.1
2023-08-08T21:25:34.991Z,77
2023-08-08T21:30:34.988Z,78
2023-08-08T21:35:34.995Z,78.2
2023-08-08T21:40:34.994Z,79.4
2023-08-08T21:45:35.006Z,79.9
2023-08-08T21:50:34.994Z,81
2023-08-08T21:55:35.017Z,79.8
2023-08-08T22:00:35.007Z,80.1
2023-08-08T22:05:34.943Z,81.8
2023-08-08T22:10:34.935Z,82.3
2023-08-08T22:15:34.949Z,82.9
2023-08-08T22:20:34.946Z,84.1
2023-08-08T22:25:34.930Z,84.5
2023-08-08T22:30:34.919Z,84.6
2023-08-08T22:35:34.923Z,85.8
2023-08-08T22:40:34.914Z,86
2023-08-08T22:45:34.922Z,84.6
2023-08-08T22:50:34.905Z,85.1
2023-08-08T22:55:34.880Z,85.9
2023-08-08T23:00:36.125Z,86.4
2023-08-08T23:20:34.864Z,84.8
2023-08-08T23:25:34.873Z,83.7
2023-08-08T23:40:34.831Z,85.3
2023-08-08T23:55:34.813Z,83.2
